Impacts TAF Board
For situational awareness. Not to be used for flight planning purposes.
IDs:

KDHN - Dothan Rgnl, AL, US

Issued at 1722 UTC 21 May 2022
Updated at 2237 UTC 21 May 2022
Potential Impact None Slight Moderate High
Time2153Z 21/23Z 22/00Z 22/01Z 22/02Z 22/03Z 22/04Z 22/05Z 22/06Z 22/07Z 22/08Z 22/09Z 22/10Z 22/11Z>>
Type OBS PRVL PRVL PRVL PRVL PRVL PRVL PRVL PRVL PRVL PRVL PRVL PRVL PRVL
VIS 10 >6 >6 >6 >6 >6 >6 >6 >6 >6 >6 >6 >6 >6
CIG -- -- -- -- -- -- -- -- -- -- -- -- -- --
Cover CLR SCT SCT SCT SCT SCT SCT SCT SCT SCT SCT SCT SCT SCT
FltCat VFR VFR VFR VFR VFR VFR VFR VFR VFR VFR VFR VFR VFR VFR
WX -- -- -- -- -- -- -- -- -- -- -- -- -- --
WDir 100 180 170 170 170 170 170 170 170 170 170 170 170 170
WSpd 5 8 3 3 3 3 3 3 3 3 3 3 3 3
WGst -- -- -- -- -- -- -- -- -- -- -- -- -- --
WSHgt -- -- -- -- -- -- -- -- -- -- -- -- -- --
WSDir -- -- -- -- -- -- -- -- -- -- -- -- -- --
WSSpd -- -- -- -- -- -- -- -- -- -- -- -- -- --
R14/32
XWnd 3 -6 -2 -2 -2 -2 -2 -2 -2 -2 -2 -2 -2 -2
R18/36
XWnd 5 0 1 1 1 1 1 1 1 1 1 1 1 1
Raw TAF
KDHN 211722Z 2118/2218 18008KT P6SM SCT030
  TEMPO 2119/2122 3SM TSRA BKN030CB
  FM220000 17003KT P6SM SCT050
  FM221400 18007KT P6SM VCTS SCT050CB


Raw METAR
KDHN 212153Z AUTO 10005KT 10SM CLR 27/22 A3013 RMK AO2 SLP198 T02720217
KDHN 212053Z 22007KT 10SM CLR 27/20 A3014 RMK AO2 SLP200 T02720200 58007
KDHN 211953Z 17013G26KT 10SM SCT029 BKN037 BKN047 24/20 A3018 RMK AO2 PK WND 18033/1940 LTG DSNT NE AND SW AND W SLP213 T02440200

METAR Board
Radar Display
Forecast Discussion
For situational awareness. Not to be used for flight planning purposes.